Huvudsida
METAR-TAF:

METAR-TAF

Flygplatser :

Karachi, Pakistan

latitud: 24-54N, longitud: 067-08E, höjd: 21 m

Aktuellt väderrapport

Denna rapport gjordes för 46 minuter sedan, klockan 20:55 UTC
Vind 12 kt från nordost
Temperatur 18°C
Fuktighet 64%
Tryck 1019 hPa
Sikt: 5000 m
rök

METAR: OPKC 142055Z 05012KT 5000 FU NSC 18/11 Q1019 NOSIG

Tid: 02:41 (21:41 UTC)

Väderprognos

Denna rapport gjordes för 3 timmar och 11 minuter sedan, klockan 18:30 UTC
Prognos gäller från 14 kl. 21 UTC till 15 kl. 06 UTC
Vind 8 kt från nord/nordost
Sikt: 4000 m
torrdis
Temporärt
från 15 kl. 00 UTC till 15 kl. 04 UTC
Vind 3 kt varierande vindriktning
Sikt: 1500 m
Spridda moln på en höjd av 3000 ft
fuktdis

TAF: OPKC 141830Z 1421/1506 03008KT 4000 HZ NSC TEMPO 1500/1504 VRB03KT 1500 BR SCT030

Aktuella väderrapporter och prognoser från 4000 flygplatser (METAR- och TAF-rapporter).

De tillgängliga stationerna syns som gula och röda prickar på kartan.

För musen över prickarna för att se namnen på stationerna.

Klicka sedan för att få väderrapporter och prognoser.

För att ändra kartan: Klicka på de gröna knapparna med ett svart kors på för att zooma in; den gröna knappen med ett streck på för att zooma ut; eller på de gröna pilarna för angränsande kartor.


METAR-TAF: